createdAt,value
2023-03-06T00:00:33.642Z,10.90
2023-03-06T00:03:01.951Z,10.40
2023-03-06T00:05:30.314Z,10.30
2023-03-06T00:07:58.301Z,10.27
2023-03-06T00:10:29.782Z,10.87
2023-03-06T00:13:00.915Z,11.30
2023-03-06T00:15:29.806Z,10.50
2023-03-06T00:17:58.828Z,10.90
2023-03-06T00:20:27.779Z,10.50
2023-03-06T00:22:57.770Z,11.13
2023-03-06T00:25:26.267Z,10.50
2023-03-06T00:27:54.471Z,11.73
2023-03-06T00:30:25.606Z,10.03
2023-03-06T00:32:54.640Z,10.50
2023-03-06T00:35:22.828Z,10.87
2023-03-06T00:37:51.139Z,11.07
2023-03-06T00:40:22.003Z,10.97
2023-03-06T00:42:50.141Z,9.90
2023-03-06T00:45:18.234Z,10.70
2023-03-06T00:47:47.697Z,10.17
2023-03-06T00:50:15.756Z,10.57
2023-03-06T00:52:43.909Z,10.80
2023-03-06T00:55:12.464Z,10.57
2023-03-06T00:57:40.503Z,10.37
2023-03-06T01:00:09.623Z,11.00
2023-03-06T01:02:37.667Z,10.40
2023-03-06T01:05:08.600Z,11.00
2023-03-06T01:07:37.157Z,11.27
2023-03-06T01:10:06.028Z,10.50
2023-03-06T01:12:34.056Z,10.40
2023-03-06T01:15:02.156Z,11.23
2023-03-06T01:17:30.153Z,10.53
2023-03-06T01:19:59.345Z,11.60
2023-03-06T01:22:28.793Z,11.33
2023-03-06T01:24:56.816Z,11.80
2023-03-06T01:27:24.771Z,10.40
2023-03-06T01:29:52.834Z,9.93
2023-03-06T01:32:21.598Z,10.80
2023-03-06T01:34:49.669Z,11.03
2023-03-06T01:37:17.938Z,11.87
2023-03-06T01:39:47.349Z,11.27
2023-03-06T01:42:15.332Z,10.70
2023-03-06T01:45:01.838Z,10.83
2023-03-06T01:47:30.063Z,11.00
2023-03-06T01:50:00.766Z,11.13
2023-03-06T01:52:32.748Z,11.27
2023-03-06T01:55:05.143Z,11.30
2023-03-06T01:57:36.296Z,11.47
2023-03-06T02:00:08.424Z,10.17
2023-03-06T02:02:37.446Z,10.00
2023-03-06T02:05:07.031Z,9.83
2023-03-06T02:07:35.942Z,9.60
2023-03-06T02:10:06.143Z,9.40
2023-03-06T02:12:34.702Z,8.97
2023-03-06T02:15:02.967Z,9.90
2023-03-06T02:17:31.195Z,9.27
2023-03-06T02:20:08.677Z,10.03
2023-03-06T02:22:41.826Z,10.23
2023-03-06T02:25:21.472Z,10.33
2023-03-06T02:27:50.016Z,9.93
2023-03-06T02:30:19.731Z,10.30
2023-03-06T02:32:47.773Z,10.37
2023-03-06T02:35:20.156Z,10.10
2023-03-06T02:37:48.293Z,10.97
2023-03-06T02:40:18.680Z,12.40
2023-03-06T02:42:50.578Z,11.90
2023-03-06T02:45:23.202Z,11.90
2023-03-06T02:47:51.175Z,11.70
2023-03-06T02:50:19.237Z,11.60
2023-03-06T02:52:47.368Z,11.27
2023-03-06T02:55:15.525Z,10.43
2023-03-06T02:57:43.799Z,9.77
2023-03-06T03:00:14.490Z,10.13
2023-03-06T03:02:42.742Z,10.47
2023-03-06T03:05:11.104Z,11.53
2023-03-06T03:07:39.157Z,10.80
2023-03-06T03:10:08.233Z,11.00
2023-03-06T03:12:36.383Z,9.77
2023-03-06T03:15:04.677Z,10.47
2023-03-06T03:17:36.864Z,10.80
2023-03-06T03:20:05.913Z,11.77
2023-03-06T03:22:33.973Z,11.30
2023-03-06T03:25:01.944Z,11.00
2023-03-06T03:27:29.952Z,11.47
2023-03-06T03:29:58.642Z,10.53
2023-03-06T03:32:26.674Z,11.73
2023-03-06T03:34:57.819Z,10.87
2023-03-06T03:37:25.746Z,11.47
2023-03-06T03:39:53.715Z,11.47
2023-03-06T03:42:21.688Z,11.80
2023-03-06T03:44:49.713Z,11.50
2023-03-06T03:47:17.814Z,11.20
2023-03-06T03:49:46.027Z,11.00
2023-03-06T03:52:15.534Z,10.57
2023-03-06T03:54:43.510Z,11.80
2023-03-06T03:57:11.498Z,11.30
2023-03-06T03:59:39.418Z,9.77
2023-03-06T04:02:07.418Z,11.27
2023-03-06T04:04:35.642Z,10.97
2023-03-06T04:07:04.518Z,10.80
2023-03-06T04:09:34.044Z,10.43
2023-03-06T04:12:02.333Z,10.77
2023-03-06T04:14:30.304Z,8.80
2023-03-06T04:16:58.260Z,11.23
2023-03-06T04:19:26.289Z,10.23
2023-03-06T04:21:54.234Z,10.80
2023-03-06T04:24:22.191Z,10.57
2023-03-06T04:26:51.529Z,10.70
2023-03-06T04:29:19.482Z,12.07
2023-03-06T04:31:47.462Z,11.27
2023-03-06T04:34:15.651Z,11.90
2023-03-06T04:36:45.206Z,11.33
2023-03-06T04:39:13.956Z,10.77
2023-03-06T04:41:42.247Z,10.17
2023-03-06T04:44:11.778Z,10.47
2023-03-06T04:46:39.752Z,11.20
2023-03-06T04:49:08.638Z,11.40
2023-03-06T04:51:37.231Z,11.47
2023-03-06T04:54:05.746Z,11.63
2023-03-06T04:56:34.642Z,10.97
2023-03-06T04:59:04.104Z,10.93
2023-03-06T05:01:33.525Z,11.07
2023-03-06T05:04:01.562Z,11.40
2023-03-06T05:06:29.603Z,11.63
2023-03-06T05:08:57.597Z,10.40
2023-03-06T05:11:25.579Z,11.33
2023-03-06T05:13:53.607Z,11.53
2023-03-06T05:16:21.608Z,10.70
2023-03-06T05:18:50.970Z,11.57
2023-03-06T05:21:18.943Z,11.90
2023-03-06T05:23:47.605Z,10.30
2023-03-06T05:26:16.409Z,9.30
2023-03-06T05:28:44.761Z,8.73
2023-03-06T05:31:12.995Z,9.13
2023-03-06T05:33:40.955Z,8.23
2023-03-06T05:36:11.101Z,9.03
2023-03-06T05:38:39.090Z,8.10
2023-03-06T05:41:07.166Z,8.60
2023-03-06T05:43:35.205Z,8.50
2023-03-06T05:46:04.086Z,8.47
2023-03-06T05:48:32.451Z,10.67
2023-03-06T05:51:02.019Z,12.77
2023-03-06T05:53:32.012Z,12.33
2023-03-06T05:56:01.655Z,11.90
2023-03-06T05:58:30.216Z,11.60
2023-03-06T06:00:58.667Z,11.00
2023-03-06T06:03:26.764Z,10.67
2023-03-06T06:05:54.779Z,10.90
2023-03-06T06:08:22.998Z,13.53
2023-03-06T06:10:53.561Z,13.67
2023-03-06T06:13:21.619Z,13.10
2023-03-06T06:15:49.657Z,11.27
2023-03-06T06:18:17.775Z,11.90
2023-03-06T06:20:45.780Z,10.17
2023-03-06T06:23:13.905Z,10.10
2023-03-06T06:25:41.872Z,10.37
2023-03-06T06:28:12.500Z,10.53
2023-03-06T06:30:40.474Z,10.13
2023-03-06T06:33:08.454Z,11.40
2023-03-06T06:35:38.079Z,11.20
2023-03-06T06:38:06.135Z,11.00
2023-03-06T06:40:34.203Z,11.10
2023-03-06T06:43:02.176Z,11.43
2023-03-06T06:45:31.572Z,9.93
2023-03-06T06:47:59.667Z,11.27
2023-03-06T06:50:27.658Z,10.73
2023-03-06T06:52:55.734Z,10.57
2023-03-06T06:55:23.753Z,12.27
2023-03-06T06:57:51.710Z,11.17
2023-03-06T07:00:21.031Z,11.70
2023-03-06T07:02:51.349Z,10.53
2023-03-06T07:05:21.130Z,10.23
2023-03-06T07:07:51.377Z,9.47
2023-03-06T07:10:20.980Z,10.63
2023-03-06T07:12:49.216Z,10.13
2023-03-06T07:15:18.255Z,9.37
2023-03-06T07:17:48.848Z,9.70
2023-03-06T07:20:19.896Z,11.17
2023-03-06T07:22:51.523Z,11.37
2023-03-06T07:25:20.204Z,10.90
2023-03-06T07:27:53.413Z,11.33
2023-03-06T07:30:22.621Z,9.73
2023-03-06T07:32:53.975Z,9.30
2023-03-06T07:35:24.331Z,9.63
2023-03-06T07:37:52.469Z,11.33
2023-03-06T07:40:20.924Z,12.20
2023-03-06T07:42:49.588Z,11.07
2023-03-06T07:45:17.832Z,11.27
2023-03-06T07:47:47.016Z,13.80
2023-03-06T07:50:15.043Z,15.00
2023-03-06T07:52:44.523Z,14.13
2023-03-06T07:55:13.601Z,14.10
2023-03-06T07:57:41.871Z,14.17
2023-03-06T08:00:14.832Z,18.57
2023-03-06T08:02:44.198Z,18.83
2023-03-06T08:05:15.491Z,15.50
2023-03-06T08:07:46.318Z,20.83
2023-03-06T08:10:16.592Z,12.60
2023-03-06T08:12:44.906Z,11.80
2023-03-06T08:15:14.140Z,12.18
2023-03-06T08:17:42.283Z,12.68
2023-03-06T08:20:11.821Z,13.80
2023-03-06T08:22:39.885Z,13.07
2023-03-06T08:25:11.670Z,11.70
2023-03-06T08:27:39.700Z,10.60
2023-03-06T08:30:09.829Z,14.23
2023-03-06T08:32:38.738Z,11.05
2023-03-06T08:35:07.851Z,11.50
2023-03-06T08:37:35.920Z,10.63
2023-03-06T08:40:05.422Z,10.30
2023-03-06T08:42:34.867Z,10.80
2023-03-06T08:45:02.854Z,10.38
2023-03-06T08:47:30.815Z,10.50
2023-03-06T08:50:00.797Z,10.73
2023-03-06T08:52:28.923Z,11.10
2023-03-06T08:54:58.082Z,12.93
2023-03-06T08:57:26.138Z,11.85
2023-03-06T08:59:55.623Z,11.20
2023-03-06T09:02:23.644Z,10.73
2023-03-06T09:04:51.638Z,11.13
2023-03-06T09:07:19.596Z,10.52
2023-03-06T09:09:47.633Z,11.98
2023-03-06T09:12:15.634Z,10.98
2023-03-06T09:14:43.600Z,10.77
2023-03-06T09:17:13.049Z,10.93
2023-03-06T09:19:41.065Z,10.95
2023-03-06T09:22:09.082Z,10.50
2023-03-06T09:24:37.097Z,10.30
2023-03-06T09:27:05.286Z,10.50
2023-03-06T09:29:33.270Z,10.93
2023-03-06T09:32:01.368Z,12.50
2023-03-06T09:34:30.840Z,10.90
2023-03-06T09:36:58.873Z,11.40
2023-03-06T09:39:27.481Z,12.10
2023-03-06T09:41:56.862Z,12.73
2023-03-06T09:44:27.922Z,11.75
2023-03-06T09:47:16.398Z,13.82
2023-03-06T09:49:56.405Z,11.40
2023-03-06T09:52:37.527Z,11.43
2023-03-06T09:55:13.487Z,10.57
2023-03-06T09:57:54.813Z,11.27
2023-03-06T10:00:27.909Z,11.57
2023-03-06T10:03:06.963Z,14.30
2023-03-06T10:05:40.817Z,10.82
2023-03-06T10:08:22.152Z,10.75
2023-03-06T10:10:55.171Z,11.00
2023-03-06T10:13:29.438Z,11.07
2023-03-06T10:16:05.906Z,10.52
2023-03-06T10:18:38.431Z,11.20
2023-03-06T10:21:24.175Z,10.80
2023-03-06T10:23:55.606Z,10.73
2023-03-06T10:26:28.067Z,9.55
2023-03-06T10:29:32.337Z,10.63
2023-03-06T10:32:11.339Z,10.50
2023-03-06T10:34:41.401Z,10.30
2023-03-06T10:37:20.074Z,10.27
2023-03-06T10:39:49.741Z,10.95
2023-03-06T10:42:17.739Z,10.52
2023-03-06T10:44:45.706Z,12.07
2023-03-06T10:47:32.463Z,12.13
2023-03-06T10:50:03.062Z,12.07
2023-03-06T10:52:34.889Z,12.02
2023-03-06T10:55:26.600Z,13.07
2023-03-06T10:57:55.054Z,13.55
2023-03-06T11:00:29.289Z,13.55
2023-03-06T11:03:17.464Z,15.57
2023-03-06T11:05:59.353Z,14.27
2023-03-06T11:08:29.767Z,15.48
2023-03-06T11:11:00.404Z,15.82
2023-03-06T11:13:31.962Z,15.18
2023-03-06T11:16:04.058Z,15.32
2023-03-06T11:18:41.043Z,15.35
2023-03-06T11:21:30.321Z,16.45
2023-03-06T11:24:05.341Z,16.33
2023-03-06T11:26:42.595Z,16.77
2023-03-06T11:29:27.842Z,15.77
2023-03-06T11:31:59.724Z,15.43
2023-03-06T11:34:39.847Z,15.48
2023-03-06T11:37:12.794Z,14.85
2023-03-06T11:39:48.016Z,15.00
2023-03-06T11:42:21.389Z,15.43
2023-03-06T11:44:57.506Z,15.75
2023-03-06T11:47:30.697Z,16.95
2023-03-06T11:50:15.392Z,15.65
2023-03-06T11:52:49.881Z,15.73
2023-03-06T11:55:30.166Z,15.93
2023-03-06T11:58:26.775Z,15.73
2023-03-06T12:01:03.009Z,15.07
2023-03-06T12:03:57.539Z,17.27
2023-03-06T12:06:37.615Z,17.00
2023-03-06T12:09:24.367Z,15.80
2023-03-06T12:12:08.864Z,15.25
2023-03-06T12:15:05.431Z,15.80
2023-03-06T12:17:47.895Z,16.17
2023-03-06T12:20:28.487Z,16.75
2023-03-06T12:23:15.051Z,16.30
2023-03-06T12:25:45.194Z,16.25
2023-03-06T12:28:35.766Z,18.35
2023-03-06T12:31:24.617Z,17.90
2023-03-06T12:34:03.775Z,17.98
2023-03-06T12:36:40.728Z,17.02
2023-03-06T12:39:16.628Z,18.13
2023-03-06T12:41:55.591Z,17.55
2023-03-06T12:44:43.648Z,17.23
2023-03-06T12:47:13.918Z,16.55
2023-03-06T12:49:46.877Z,18.02
2023-03-06T12:52:29.539Z,17.58
2023-03-06T12:54:59.830Z,11.70
2023-03-06T12:57:29.059Z,16.95
2023-03-06T12:59:58.500Z,16.67
2023-03-06T13:03:07.914Z,18.60
2023-03-06T13:06:21.534Z,17.73
2023-03-06T13:09:13.391Z,15.57
2023-03-06T13:12:03.991Z,17.48
2023-03-06T13:14:54.788Z,17.38
2023-03-06T13:17:38.580Z,17.63
2023-03-06T13:20:30.866Z,16.23
2023-03-06T13:22:59.049Z,17.27
2023-03-06T13:25:50.575Z,17.08
2023-03-06T13:28:27.528Z,16.77
2023-03-06T13:30:56.218Z,16.90
2023-03-06T13:34:01.868Z,17.40
2023-03-06T13:36:32.147Z,17.52
2023-03-06T13:39:02.114Z,17.70
2023-03-06T13:42:00.399Z,17.92
2023-03-06T13:44:53.152Z,16.85
2023-03-06T13:48:09.758Z,17.95
2023-03-06T13:50:40.989Z,15.85
2023-03-06T13:53:37.508Z,16.65
2023-03-06T13:56:22.735Z,17.95
2023-03-06T13:59:21.251Z,18.33
2023-03-06T14:02:01.853Z,17.52
2023-03-06T14:04:38.095Z,16.13
2023-03-06T14:07:28.580Z,17.73
2023-03-06T14:10:03.948Z,16.75
2023-03-06T14:12:35.151Z,14.55
2023-03-06T14:15:13.454Z,16.80
2023-03-06T14:17:53.653Z,16.23
2023-03-06T14:20:22.761Z,10.23
2023-03-06T14:22:52.144Z,14.20
2023-03-06T14:25:27.518Z,17.77
2023-03-06T14:28:02.894Z,17.67
2023-03-06T14:30:33.811Z,15.48
2023-03-06T14:33:11.504Z,17.25
2023-03-06T14:35:39.620Z,19.15
2023-03-06T14:38:09.097Z,17.10
2023-03-06T14:40:42.053Z,16.23
2023-03-06T14:43:28.834Z,15.70
2023-03-06T14:45:58.592Z,15.88
2023-03-06T14:48:38.526Z,17.98
2023-03-06T14:51:08.063Z,17.23
2023-03-06T14:53:37.922Z,15.88
2023-03-06T14:56:07.769Z,23.08
2023-03-06T14:58:37.979Z,17.00
2023-03-06T15:01:09.569Z,16.98
2023-03-06T15:03:45.723Z,17.75
2023-03-06T15:06:20.207Z,15.63
2023-03-06T15:08:57.019Z,16.63
2023-03-06T15:11:25.074Z,15.30
2023-03-06T15:14:03.825Z,13.85
2023-03-06T15:16:32.228Z,16.48
2023-03-06T15:19:02.083Z,15.88
2023-03-06T15:21:35.987Z,13.98
2023-03-06T15:24:32.850Z,14.95
2023-03-06T15:27:04.168Z,15.95
2023-03-06T15:29:32.220Z,15.52
2023-03-06T15:32:28.879Z,14.65
2023-03-06T15:35:27.877Z,10.90
2023-03-06T15:37:56.348Z,10.82
2023-03-06T15:40:27.960Z,14.77
2023-03-06T15:42:56.447Z,13.98
2023-03-06T15:45:27.008Z,14.50
2023-03-06T15:47:56.494Z,14.98
2023-03-06T15:50:26.921Z,13.68
2023-03-06T15:52:55.048Z,13.32
2023-03-06T15:55:27.064Z,13.48
2023-03-06T15:57:58.062Z,12.63
2023-03-06T16:00:28.790Z,11.63
2023-03-06T16:02:57.235Z,11.98
2023-03-06T16:05:27.006Z,13.43
2023-03-06T16:07:56.007Z,12.77
2023-03-06T16:10:27.723Z,12.50
2023-03-06T16:12:57.736Z,12.60
2023-03-06T16:15:29.176Z,12.27
2023-03-06T16:17:57.579Z,11.02
2023-03-06T16:20:27.228Z,10.23
2023-03-06T16:22:55.416Z,11.95
2023-03-06T16:25:24.980Z,11.95
2023-03-06T16:27:59.069Z,11.43
2023-03-06T16:30:29.253Z,10.45
2023-03-06T16:32:57.387Z,11.02
2023-03-06T16:35:25.598Z,11.73
2023-03-06T16:37:53.813Z,11.68
2023-03-06T16:40:24.596Z,11.98
2023-03-06T16:42:55.278Z,11.07
2023-03-06T16:45:24.309Z,10.13
2023-03-06T16:47:52.934Z,10.52
2023-03-06T16:50:26.745Z,10.82
2023-03-06T16:52:56.327Z,8.80
2023-03-06T16:55:26.144Z,15.77
2023-03-06T16:57:55.673Z,14.93
2023-03-06T17:00:28.582Z,5.00
2023-03-06T17:02:57.544Z,16.50
2023-03-06T17:05:25.522Z,8.13
2023-03-06T17:07:53.696Z,11.88
2023-03-06T17:10:26.315Z,10.05
2023-03-06T17:12:56.512Z,11.27
2023-03-06T17:15:24.589Z,10.95
2023-03-06T17:17:53.386Z,11.23
2023-03-06T17:20:21.908Z,6.63
2023-03-06T17:22:49.935Z,10.73
2023-03-06T17:25:18.090Z,19.13
2023-03-06T17:27:46.158Z,16.67
2023-03-06T17:30:17.031Z,10.95
2023-03-06T17:32:45.066Z,10.23
2023-03-06T17:35:13.162Z,6.43
2023-03-06T17:37:41.251Z,14.40
2023-03-06T17:40:10.985Z,16.65
2023-03-06T17:42:39.002Z,13.77
2023-03-06T17:45:09.401Z,11.00
2023-03-06T17:47:39.102Z,11.20
2023-03-06T17:50:07.532Z,9.20
2023-03-06T17:52:35.641Z,13.98
2023-03-06T17:55:03.741Z,10.38
2023-03-06T17:57:31.781Z,8.38
2023-03-06T17:59:59.800Z,12.23
2023-03-06T18:02:27.920Z,11.18
2023-03-06T18:04:58.576Z,11.13
2023-03-06T18:07:26.739Z,12.15
2023-03-06T18:09:54.817Z,10.40
2023-03-06T18:12:22.867Z,10.95
2023-03-06T18:14:51.149Z,8.77
2023-03-06T18:17:19.262Z,12.68
2023-03-06T18:19:47.307Z,11.70
2023-03-06T18:22:16.693Z,9.90
2023-03-06T18:24:44.792Z,10.07
2023-03-06T18:27:12.841Z,10.70
2023-03-06T18:29:40.940Z,10.15
2023-03-06T18:32:10.805Z,9.38
2023-03-06T18:34:39.042Z,7.28
2023-03-06T18:37:07.189Z,10.20
2023-03-06T18:39:36.699Z,8.15
2023-03-06T18:42:04.843Z,11.60
2023-03-06T18:44:32.842Z,10.57
2023-03-06T18:47:00.951Z,5.95
2023-03-06T18:49:29.024Z,9.43
2023-03-06T18:51:57.104Z,9.98
2023-03-06T18:54:28.606Z,9.88
2023-03-06T18:56:58.138Z,12.70
2023-03-06T18:59:26.324Z,10.68
2023-03-06T19:01:57.713Z,10.27
2023-03-06T19:04:26.128Z,5.50
2023-03-06T19:06:54.660Z,9.50
2023-03-06T19:09:23.220Z,7.35
2023-03-06T19:11:52.569Z,8.95
2023-03-06T19:14:23.827Z,9.60
2023-03-06T19:16:51.969Z,6.70
2023-03-06T19:19:19.999Z,6.25
2023-03-06T19:21:48.005Z,6.28
2023-03-06T19:24:16.022Z,8.65
2023-03-06T19:26:44.151Z,9.45
2023-03-06T19:29:12.330Z,9.73
2023-03-06T19:31:42.738Z,9.15
2023-03-06T19:34:10.837Z,7.00
2023-03-06T19:36:40.923Z,9.65
2023-03-06T19:39:09.825Z,8.90
2023-03-06T19:41:37.853Z,10.50
2023-03-06T19:44:06.340Z,9.55
2023-03-06T19:46:36.225Z,8.98
2023-03-06T19:49:11.887Z,9.30
2023-03-06T19:51:39.938Z,8.23
2023-03-06T19:54:07.989Z,8.77
2023-03-06T19:56:36.059Z,7.35
2023-03-06T19:59:04.052Z,8.52
2023-03-06T20:01:34.225Z,8.40
2023-03-06T20:04:03.388Z,7.60
2023-03-06T20:06:36.699Z,7.78
2023-03-06T20:09:06.683Z,7.60
2023-03-06T20:11:34.756Z,7.38
2023-03-06T20:14:04.367Z,7.05
2023-03-06T20:16:33.315Z,7.22
2023-03-06T20:19:02.479Z,7.35
2023-03-06T20:21:33.681Z,6.35
2023-03-06T20:24:01.891Z,6.70
2023-03-06T20:26:31.208Z,5.13
2023-03-06T20:28:59.536Z,6.97
2023-03-06T20:31:29.759Z,5.78
2023-03-06T20:34:00.101Z,6.30
2023-03-06T20:36:30.530Z,6.38
2023-03-06T20:39:02.583Z,6.55
2023-03-06T20:41:32.946Z,5.82
2023-03-06T20:44:02.568Z,4.80
2023-03-06T20:46:31.917Z,5.30
2023-03-06T20:49:00.360Z,5.57
2023-03-06T20:51:31.808Z,6.43
2023-03-06T20:54:02.720Z,7.05
2023-03-06T20:56:33.138Z,6.63
2023-03-06T20:59:02.136Z,6.50
2023-03-06T21:01:32.389Z,5.03
2023-03-06T21:04:01.537Z,5.53
2023-03-06T21:06:30.175Z,4.65
2023-03-06T21:08:58.855Z,5.80
2023-03-06T21:11:28.818Z,5.60
2023-03-06T21:13:57.052Z,6.22
2023-03-06T21:16:26.792Z,5.28
2023-03-06T21:18:56.224Z,5.03
2023-03-06T21:21:26.658Z,6.68
2023-03-06T21:23:54.931Z,3.13
2023-03-06T21:26:25.016Z,2.93
2023-03-06T21:28:55.384Z,4.43
2023-03-06T21:31:23.635Z,6.32
2023-03-06T21:33:51.892Z,6.18
2023-03-06T21:36:22.675Z,5.47
2023-03-06T21:38:51.925Z,5.40
2023-03-06T21:41:24.171Z,6.43
2023-03-06T21:43:56.982Z,5.95
2023-03-06T21:46:25.454Z,5.57
2023-03-06T21:48:54.871Z,5.87
2023-03-06T21:51:24.593Z,5.57
2023-03-06T21:53:54.070Z,5.82
2023-03-06T21:56:25.278Z,5.30
2023-03-06T21:58:55.800Z,5.00
2023-03-06T22:01:28.753Z,5.88
2023-03-06T22:03:57.486Z,6.40
2023-03-06T22:06:27.162Z,6.57
2023-03-06T22:08:57.184Z,6.20
2023-03-06T22:11:26.551Z,6.40
2023-03-06T22:13:55.999Z,4.87
2023-03-06T22:16:24.005Z,5.53
2023-03-06T22:18:52.860Z,6.60
2023-03-06T22:21:23.037Z,6.22
2023-03-06T22:23:51.931Z,6.23
2023-03-06T22:26:20.684Z,6.80
2023-03-06T22:28:48.802Z,6.03
2023-03-06T22:31:20.141Z,5.90
2023-03-06T22:33:51.267Z,6.60
2023-03-06T22:36:20.203Z,6.20
2023-03-06T22:38:49.028Z,6.40
2023-03-06T22:41:20.116Z,6.50
2023-03-06T22:43:48.693Z,6.40
2023-03-06T22:46:19.507Z,7.03
2023-03-06T22:48:47.491Z,6.53
2023-03-06T22:51:17.121Z,6.90
2023-03-06T22:53:45.907Z,5.57
2023-03-06T22:56:15.900Z,6.87
2023-03-06T22:58:45.141Z,6.70
2023-03-06T23:01:14.947Z,6.63
2023-03-06T23:03:45.800Z,6.50
2023-03-06T23:06:16.199Z,6.63
2023-03-06T23:08:46.102Z,6.47
2023-03-06T23:11:16.059Z,6.50
2023-03-06T23:13:44.317Z,6.97
2023-03-06T23:16:12.385Z,4.33
2023-03-06T23:18:42.009Z,6.60
2023-03-06T23:21:13.576Z,6.47
2023-03-06T23:23:42.805Z,6.93
2023-03-06T23:26:15.082Z,6.27
2023-03-06T23:28:43.458Z,7.23
2023-03-06T23:31:13.061Z,6.83
2023-03-06T23:33:41.765Z,7.20
2023-03-06T23:36:13.107Z,6.60
2023-03-06T23:38:41.644Z,7.63
2023-03-06T23:41:12.727Z,6.85
2023-03-06T23:43:41.060Z,6.80
2023-03-06T23:46:09.990Z,6.77
2023-03-06T23:48:39.720Z,7.40
2023-03-06T23:51:08.559Z,7.03
2023-03-06T23:53:38.092Z,7.03
2023-03-06T23:56:07.299Z,6.87
2023-03-06T23:58:36.264Z,7.30
